Lublin Radawiec, Poland
Current Conditions -  °F | °C
As of 7:30 PM on Monday 22 Dec 2014 (Local Time) from EPLB Reporting Station
Moderate Rain Moderate Rain  
Wind Chill: 38°   Ceiling: 1400
Heat Index: 46°   Visibility: 3mi
Dew Point: 45°   Wind: 23mph
Humidity: 93%   Direction: 250°WSW
Pressure: 29.62"   Gusts: 35mph
Location:  51.2°N, 22.39°E
Report Text: EPLB 221730Z 25020G30KT 5000 RA BKN014 OVC024 08/07 Q1003
Loading
Personal Weather Stations






























Interactive Weather Map New forecast layout! Learn more

10-Day Weather Forecast

Advertisements
Track Severe Weather on mobile